createdAt,value
2023-02-21T00:01:55.379Z,8.3
2023-02-21T00:07:01.514Z,8.3
2023-02-21T00:12:07.602Z,8.3
2023-02-21T00:17:13.719Z,8.3
2023-02-21T00:22:19.831Z,8.3
2023-02-21T00:27:25.955Z,8.3
2023-02-21T00:32:32.091Z,8.4
2023-02-21T00:37:37.173Z,8.4
2023-02-21T00:42:43.292Z,8.4
2023-02-21T00:47:49.402Z,8.4
2023-02-21T00:52:55.528Z,8.4
2023-02-21T00:58:01.622Z,8.4
2023-02-21T01:03:07.756Z,8.4
2023-02-21T01:08:13.858Z,8.4
2023-02-21T01:13:19.966Z,8.4
2023-02-21T01:18:26.084Z,8.3
2023-02-21T01:23:32.201Z,8.3
2023-02-21T01:28:38.313Z,8.3
2023-02-21T01:33:44.425Z,8.3
2023-02-21T01:38:50.543Z,8.3
2023-02-21T01:43:55.687Z,8.3
2023-02-21T01:49:01.784Z,8.2
2023-02-21T01:54:07.872Z,8.2
2023-02-21T01:59:13.996Z,8.3
2023-02-21T02:04:20.087Z,8.3
2023-02-21T02:09:26.215Z,8.3
2023-02-21T02:14:32.325Z,8.4
2023-02-21T02:19:38.431Z,8.3
2023-02-21T02:24:44.539Z,8.4
2023-02-21T02:29:50.663Z,8.4
2023-02-21T02:34:56.762Z,8.4
2023-02-21T02:40:02.881Z,8.5
2023-02-21T02:45:09.000Z,8.5
2023-02-21T02:50:14.115Z,8.5
2023-02-21T02:55:20.229Z,8.5
2023-02-21T03:00:26.335Z,8.6
2023-02-21T03:05:32.454Z,8.5
2023-02-21T03:10:38.567Z,8.5
2023-02-21T03:15:44.668Z,8.5
2023-02-21T03:20:50.787Z,8.5
2023-02-21T03:25:56.898Z,8.5
2023-02-21T03:31:03.031Z,8.4
2023-02-21T03:36:09.125Z,8.4
2023-02-21T03:41:15.240Z,8.3
2023-02-21T03:46:21.339Z,8.2
2023-02-21T03:51:27.459Z,8.1
2023-02-21T03:56:32.593Z,8.1
2023-02-21T04:01:38.695Z,8
2023-02-21T04:06:44.848Z,8
2023-02-21T04:11:50.956Z,8
2023-02-21T04:16:57.055Z,8
2023-02-21T04:22:03.170Z,8.1
2023-02-21T04:27:09.263Z,8.1
2023-02-21T04:32:15.403Z,8.1
2023-02-21T04:37:21.516Z,8.1
2023-02-21T04:42:27.614Z,8.1
2023-02-21T04:47:33.738Z,8.2
2023-02-21T04:52:39.836Z,8.2
2023-02-21T04:57:46.021Z,8.3
2023-02-21T05:02:51.085Z,8.2
2023-02-21T05:07:57.262Z,8.2
2023-02-21T05:13:03.301Z,8.2
2023-02-21T05:18:09.414Z,8.3
2023-02-21T05:23:15.549Z,8.2
2023-02-21T05:28:21.679Z,8.2
2023-02-21T05:33:27.749Z,8.3
2023-02-21T05:38:33.875Z,8.2
2023-02-21T05:43:39.973Z,8.2
2023-02-21T05:48:46.095Z,8.2
2023-02-21T05:53:52.193Z,8.1
2023-02-21T05:58:58.315Z,8.1
2023-02-21T06:04:04.415Z,8.1
2023-02-21T06:09:09.571Z,8.1
2023-02-21T06:14:15.666Z,8
2023-02-21T06:19:21.769Z,8
2023-02-21T06:24:27.882Z,8
2023-02-21T06:29:34.002Z,8
2023-02-21T06:34:40.101Z,8
2023-02-21T06:39:46.203Z,8.1
2023-02-21T06:44:52.332Z,8.1
2023-02-21T06:49:58.435Z,8.1
2023-02-21T06:55:04.593Z,8.1
2023-02-21T07:00:10.755Z,8.1
2023-02-21T07:05:16.783Z,8.1
2023-02-21T07:10:22.898Z,8.2
2023-02-21T07:15:28.033Z,8.2
2023-02-21T07:20:34.149Z,8.1
2023-02-21T07:25:40.247Z,8.2
2023-02-21T07:30:46.341Z,8.2
2023-02-21T07:35:52.454Z,8.2
2023-02-21T07:40:58.585Z,8.3
2023-02-21T07:46:04.679Z,8.3
2023-02-21T07:51:10.808Z,8.3
2023-02-21T07:56:16.897Z,8.3
2023-02-21T08:01:23.003Z,8.3
2023-02-21T08:06:29.136Z,8.4
2023-02-21T08:11:35.269Z,8.4
2023-02-21T08:16:41.362Z,8.5
2023-02-21T08:21:46.481Z,8.4
2023-02-21T08:26:52.594Z,8.5
2023-02-21T08:31:58.709Z,8.6
2023-02-21T08:37:04.822Z,8.7
2023-02-21T08:42:10.932Z,8.7
2023-02-21T08:47:17.230Z,8.7
2023-02-21T08:52:23.158Z,8.8
2023-02-21T08:57:29.269Z,8.9
2023-02-21T09:02:35.386Z,8.9
2023-02-21T09:07:41.503Z,8.8
2023-02-21T09:12:47.601Z,8.9
2023-02-21T09:18:30.970Z,8.9
2023-02-21T09:22:59.834Z,8.9
2023-02-21T09:28:05.166Z,8.9
2023-02-21T09:33:11.100Z,9
2023-02-21T09:38:17.203Z,9
2023-02-21T09:43:23.327Z,9.1
2023-02-21T09:48:29.444Z,9.1
2023-02-21T09:53:35.570Z,9.1
2023-02-21T09:58:41.667Z,9.1
2023-02-21T10:03:47.916Z,9.1
2023-02-21T10:08:53.924Z,9
2023-02-21T10:14:00.014Z,9
2023-02-21T10:19:06.110Z,9
2023-02-21T10:24:12.234Z,9
2023-02-21T10:29:18.349Z,8.9
2023-02-21T10:34:23.482Z,9
2023-02-21T10:39:29.594Z,9.1
2023-02-21T10:44:35.761Z,9.2
2023-02-21T10:49:41.812Z,9.1
2023-02-21T10:54:48.052Z,9.1
2023-02-21T10:59:54.125Z,9.1
2023-02-21T11:05:00.142Z,9.1
2023-02-21T11:10:06.277Z,9.2
2023-02-21T11:15:12.509Z,9
2023-02-21T11:20:18.474Z,9
2023-02-21T11:25:24.700Z,8.9
2023-02-21T11:30:30.704Z,8.9
2023-02-21T11:35:36.850Z,8.8
2023-02-21T11:40:41.947Z,8.8
2023-02-21T11:45:48.055Z,8.9
2023-02-21T11:50:54.157Z,8.8
2023-02-21T11:56:00.297Z,8.8
2023-02-21T12:01:06.399Z,8.7
2023-02-21T12:06:12.507Z,8.8
2023-02-21T12:11:18.622Z,8.9
2023-02-21T12:16:24.719Z,8.9
2023-02-21T12:21:30.842Z,9.2
2023-02-21T12:26:36.963Z,9.3
2023-02-21T12:31:43.068Z,9.4
2023-02-21T12:36:49.188Z,9.2
2023-02-21T12:41:55.310Z,9.1
2023-02-21T12:47:00.426Z,9.2
2023-02-21T12:52:06.521Z,9.2
2023-02-21T12:57:12.696Z,9.1
2023-02-21T13:02:18.790Z,9
2023-02-21T13:07:24.905Z,9
2023-02-21T13:12:31.022Z,9.1
2023-02-21T13:17:37.124Z,9.1
2023-02-21T13:22:43.240Z,9
2023-02-21T13:27:49.338Z,9
2023-02-21T13:32:55.466Z,9.1
2023-02-21T13:38:01.568Z,9.2
2023-02-21T13:43:07.698Z,9.4
2023-02-21T13:48:13.797Z,9.3
2023-02-21T13:53:18.920Z,9.3
2023-02-21T13:58:25.045Z,9.5
2023-02-21T14:03:31.150Z,9.6
2023-02-21T14:08:37.271Z,9.5
2023-02-21T14:13:43.375Z,9.7
2023-02-21T14:18:49.473Z,9.6
2023-02-21T14:23:54.631Z,9.5
2023-02-21T14:29:00.737Z,9.4
2023-02-21T14:34:06.839Z,9.3
2023-02-21T14:44:19.091Z,9.8
2023-02-21T14:49:25.203Z,9.8
2023-02-21T14:54:31.300Z,9.8
2023-02-21T14:59:37.424Z,9.8
2023-02-21T15:04:43.523Z,9.7
2023-02-21T15:09:49.643Z,9.5
2023-02-21T15:14:55.809Z,9.5
2023-02-21T15:20:01.867Z,9.5
2023-02-21T15:25:08.006Z,9.6
2023-02-21T15:30:13.109Z,9.6
2023-02-21T15:35:19.226Z,9.7
2023-02-21T15:40:25.372Z,9.8
2023-02-21T15:45:31.451Z,9.8
2023-02-21T15:50:37.554Z,9.6
2023-02-21T15:55:43.674Z,9.5
2023-02-21T16:00:49.778Z,9.5
2023-02-21T16:05:55.905Z,9.4
2023-02-21T16:11:01.996Z,9.4
2023-02-21T16:16:08.115Z,9.3
2023-02-21T16:21:14.237Z,9.3
2023-02-21T16:26:20.331Z,9.3
2023-02-21T16:31:26.457Z,9.3
2023-02-21T16:36:31.585Z,9.2
2023-02-21T16:41:37.688Z,9.2
2023-02-21T16:46:43.807Z,9.2
2023-02-21T16:51:49.911Z,9.2
2023-02-21T16:56:56.012Z,9.1
2023-02-21T17:02:02.142Z,9.1
2023-02-21T17:07:08.252Z,9
2023-02-21T17:12:14.350Z,8.9
2023-02-21T17:17:20.466Z,8.9
2023-02-21T17:22:26.574Z,8.8
2023-02-21T17:27:32.666Z,8.8
2023-02-21T17:32:38.796Z,8.8
2023-02-21T17:37:44.926Z,8.8
2023-02-21T17:42:50.021Z,8.7
2023-02-21T17:47:56.131Z,8.7
2023-02-21T17:53:02.257Z,8.6
2023-02-21T17:58:08.407Z,8.5
2023-02-21T18:03:14.468Z,8.4
2023-02-21T18:08:20.600Z,8.4
2023-02-21T18:13:26.703Z,8.3
2023-02-21T18:18:32.816Z,8.3
2023-02-21T18:23:38.912Z,8.3
2023-02-21T18:28:45.045Z,8.3
2023-02-21T18:33:51.157Z,8.3
2023-02-21T18:38:57.267Z,8.3
2023-02-21T18:44:03.367Z,8.2
2023-02-21T18:49:08.514Z,8.2
2023-02-21T18:54:14.628Z,8.2
2023-02-21T18:59:20.734Z,8.2
2023-02-21T19:04:26.831Z,8.3
2023-02-21T19:09:32.936Z,8.2
2023-02-21T19:14:39.044Z,8.2
2023-02-21T19:19:45.170Z,8.2
2023-02-21T19:24:51.297Z,8.2
2023-02-21T19:29:57.393Z,8.1
2023-02-21T19:35:03.507Z,8.1
2023-02-21T19:40:09.708Z,8.1
2023-02-21T19:45:15.718Z,8
2023-02-21T19:50:21.840Z,8
2023-02-21T19:55:26.964Z,8
2023-02-21T20:00:33.122Z,8
2023-02-21T20:05:39.175Z,8
2023-02-21T20:10:45.296Z,8
2023-02-21T20:15:51.528Z,8
2023-02-21T20:20:57.531Z,8
2023-02-21T20:26:03.613Z,8
2023-02-21T20:31:09.736Z,8
2023-02-21T20:36:15.841Z,8
2023-02-21T20:41:21.955Z,8
2023-02-21T20:46:28.063Z,8
2023-02-21T20:51:34.166Z,8
2023-02-21T20:56:40.298Z,8
2023-02-21T21:01:45.424Z,8
2023-02-21T21:06:51.554Z,8
2023-02-21T21:11:57.631Z,8
2023-02-21T21:17:03.753Z,8
2023-02-21T21:22:09.861Z,8
2023-02-21T21:27:15.992Z,8
2023-02-21T21:32:22.088Z,7.9
2023-02-21T21:37:28.222Z,7.9
2023-02-21T21:42:34.312Z,7.9
2023-02-21T21:47:40.454Z,7.9
2023-02-21T21:52:46.582Z,7.9
2023-02-21T21:57:52.704Z,7.8
2023-02-21T22:02:58.789Z,7.8
2023-02-21T22:08:03.922Z,7.8
2023-02-21T22:13:10.027Z,7.8
2023-02-21T22:18:16.125Z,7.8
2023-02-21T22:23:22.245Z,7.8
2023-02-21T22:28:28.354Z,7.8
2023-02-21T22:33:34.480Z,7.8
2023-02-21T22:38:40.576Z,7.7
2023-02-21T22:43:46.702Z,7.8
2023-02-21T22:48:52.799Z,7.7
2023-02-21T22:53:58.917Z,7.7
2023-02-21T23:04:11.118Z,7.6
2023-02-21T23:09:17.238Z,7.6
2023-02-21T23:14:22.369Z,7.5
2023-02-21T23:19:28.469Z,7.5
2023-02-21T23:24:34.587Z,7.5
2023-02-21T23:29:40.723Z,7.6
2023-02-21T23:34:46.816Z,7.6
2023-02-21T23:39:52.928Z,7.6
2023-02-21T23:44:59.053Z,7.6
2023-02-21T23:50:05.152Z,7.6
2023-02-21T23:55:11.265Z,7.6
